Westover, New York
Current Conditions -  °F | °C
As of 8:17 AM on Thursday 27 Nov 2014 (Local Time) from KBGM Reporting Station
Overcast Overcast  
Wind Chill: 23°   Ceiling: 1500
Heat Index: 29°   Visibility: 7mi
Dew Point: 24°   Wind: 6mph
Humidity: 82%   Direction: 250°WSW
Pressure: 29.95"   Gusts: NA
Location:  42.1768°N, 76.0035°W
Report Text: KBGM 271317Z 25005KT 7SM SCT004 BKN015 OVC036 M02/M04 A2995 RMK AO2 SNE07 P0000 T10171044 $
Loading
Personal Weather Stations






























Interactive Weather Map New forecast layout! Learn more

10-Day Weather Forecast

Advertisements
Track Severe Weather on mobile